Time;durP1;ratioP1;P1;durP2;ratioP2;P2;SDS_P1;SDS_P2;PMS_P1;PMS_P2;Temp;Humidity;BMP_temperature;BMP_pressure;BME280_temperature;BME280_humidity;BME280_pressure;Samples;Min_cycle;Max_cycle;Signal;HPM_P1;HPM_P2
2022/01/04 00:00:12;;;;;;;14.58;11.38;;;;;;;10.45;53.88;100739.89;1694000;82;21045;-53
2022/01/04 00:02:42;;;;;;;14.80;10.98;;;;;;;10.38;54.11;100742.23;1676340;84;21074;-53
2022/01/04 00:05:09;;;;;;;11.18;9.83;;;;;;;10.36;54.08;100746.61;1666611;84;21511;-53
2022/01/04 00:07:35;;;;;;;12.25;9.48;;;;;;;10.34;54.04;100745.78;1660219;85;21540;-53
2022/01/04 00:10:02;;;;;;;11.43;9.90;;;;;;;10.32;54.10;100752.77;1655199;84;21606;-53
2022/01/04 00:15:15;;;;;;;12.53;9.80;;;;;;;10.30;54.16;100745.44;1663066;84;21047;-53
2022/01/04 00:17:43;;;;;;;10.65;9.13;;;;;;;10.29;54.24;100741.11;1675575;84;21082;-53
2022/01/04 00:20:11;;;;;;;11.97;10.15;;;;;;;10.28;54.33;100742.02;1672888;84;21066;-53
2022/01/04 00:22:38;;;;;;;13.50;9.88;;;;;;;10.28;54.35;100748.52;1665058;84;21677;-53
2022/01/04 00:25:06;;;;;;;11.28;9.65;;;;;;;10.28;54.24;100756.31;1662561;84;21152;-53
2022/01/04 00:27:34;;;;;;;12.50;9.53;;;;;;;10.26;54.26;100755.48;1676916;84;20980;-53
2022/01/04 00:30:01;;;;;;;10.55;9.33;;;;;;;10.27;54.22;100763.69;1667714;84;21031;-55
2022/01/04 00:32:28;;;;;;;10.10;8.65;;;;;;;10.25;54.20;100771.97;1653764;84;21658;-53
2022/01/04 00:34:54;;;;;;;11.08;9.40;;;;;;;10.24;54.21;100766.37;1656660;84;21066;-55
2022/01/04 00:37:22;;;;;;;11.75;8.60;;;;;;;10.23;54.23;100763.34;1664799;84;21019;-53
2022/01/04 00:39:49;;;;;;;10.18;8.40;;;;;;;10.22;54.22;100766.84;1668671;84;21079;-53
2022/01/04 00:42:17;;;;;;;10.72;8.75;;;;;;;10.23;54.22;100763.34;1671194;84;21044;-55
2022/01/04 00:44:44;;;;;;;9.65;7.70;;;;;;;10.22;54.24;100761.17;1661570;84;21507;-53
2022/01/04 00:47:11;;;;;;;8.78;7.40;;;;;;;10.22;54.18;100766.84;1668912;84;21499;-53
2022/01/04 00:49:37;;;;;;;9.88;7.90;;;;;;;10.24;54.14;100772.87;1661104;84;21502;-53
2022/01/04 00:52:06;;;;;;;9.15;7.60;;;;;;;10.24;54.18;100768.97;1661763;83;21035;-53
2022/01/04 00:54:35;;;;;;;9.38;8.10;;;;;;;10.24;54.27;100772.87;1658970;84;21032;-53
2022/01/04 00:57:02;;;;;;;9.48;6.90;;;;;;;10.25;54.38;100766.77;1662254;84;21106;-53
2022/01/04 00:59:28;;;;;;;7.72;6.92;;;;;;;10.27;54.35;100775.39;1664494;84;21042;-54
2022/01/04 01:01:55;;;;;;;9.85;7.97;;;;;;;10.27;54.34;100767.59;1652328;85;21075;-53
2022/01/04 01:04:22;;;;;;;11.55;8.08;;;;;;;10.28;54.13;100774.05;1655090;84;21002;-53
2022/01/04 01:06:50;;;;;;;8.90;7.37;;;;;;;10.28;54.03;100776.66;1644710;84;21060;-53
2022/01/04 01:09:16;;;;;;;8.45;7.28;;;;;;;10.29;53.95;100773.62;1690231;84;21039;-53
2022/01/04 01:11:43;;;;;;;9.13;7.25;;;;;;;10.25;53.94;100774.56;1663142;85;21068;-53
2022/01/04 01:14:09;;;;;;;7.72;6.92;;;;;;;10.24;53.87;100773.70;1670240;85;21538;-53
2022/01/04 01:16:36;;;;;;;9.05;7.42;;;;;;;10.25;53.79;100783.67;1653151;85;21613;-53
2022/01/04 01:19:03;;;;;;;8.00;7.00;;;;;;;10.24;53.72;100778.07;1665332;85;21526;-53
2022/01/04 01:21:31;;;;;;;8.23;6.40;;;;;;;10.24;53.63;100791.07;1663333;85;21087;-52
2022/01/04 01:23:58;;;;;;;7.50;6.35;;;;;;;10.23;53.60;100788.91;1653415;84;21176;-52
2022/01/04 01:26:24;;;;;;;7.40;6.37;;;;;;;10.22;53.46;100787.64;1666727;85;21122;-52
2022/01/04 01:28:51;;;;;;;6.75;6.00;;;;;;;10.19;53.51;100779.89;1659578;85;21047;-53
2022/01/04 01:31:18;;;;;;;7.95;6.33;;;;;;;10.18;53.46;100789.89;1676004;85;21008;-52
2022/01/04 01:33:45;;;;;;;8.05;6.12;;;;;;;10.17;53.41;100777.77;1667854;85;21000;-53
2022/01/04 01:36:13;;;;;;;7.85;6.15;;;;;;;10.15;53.42;100778.23;1674250;85;20992;-52
2022/01/04 01:38:39;;;;;;;7.12;6.28;;;;;;;10.14;53.50;100786.47;1670839;84;21042;-53
2022/01/04 01:41:06;;;;;;;8.45;6.75;;;;;;;10.13;53.46;100780.88;1694639;84;21066;-53
2022/01/04 01:43:32;;;;;;;7.22;6.40;;;;;;;10.13;53.43;100780.02;1697556;83;21077;-52
2022/01/04 01:45:59;;;;;;;8.68;6.55;;;;;;;10.14;53.30;100787.77;1677551;83;21056;-53
2022/01/04 01:48:26;;;;;;;7.20;6.40;;;;;;;10.13;53.24;100789.11;1690397;83;21532;-53
2022/01/04 01:50:53;;;;;;;8.18;5.87;;;;;;;10.11;53.19;100793.48;1689721;83;21050;-52
2022/01/04 01:53:19;;;;;;;7.85;5.97;;;;;;;10.09;53.17;100798.69;1716583;83;21037;-53
2022/01/04 01:55:46;;;;;;;6.85;5.78;;;;;;;10.08;53.12;100802.59;1645456;85;21114;-53
2022/01/04 01:58:13;;;;;;;7.33;5.87;;;;;;;10.05;53.13;100806.13;1689042;83;21077;-53
2022/01/04 02:00:40;;;;;;;6.85;5.33;;;;;;;10.03;52.99;100807.04;1695130;83;21066;-52
2022/01/04 02:03:06;;;;;;;5.92;5.33;;;;;;;10.02;52.94;100815.70;1696211;82;21404;-53
2022/01/04 02:05:33;;;;;;;5.53;4.95;;;;;;;9.99;52.98;100818.38;1688826;83;21015;-52
2022/01/04 02:08:02;;;;;;;6.40;4.85;;;;;;;9.95;53.04;100809.80;1702392;83;21010;-52
2022/01/04 02:10:30;;;;;;;5.12;4.40;;;;;;;9.94;53.12;100815.00;1685889;83;21009;-53
2022/01/04 02:12:57;;;;;;;6.62;4.70;;;;;;;9.91;53.25;100815.06;1687347;84;21066;-52
2022/01/04 02:15:24;;;;;;;5.58;4.62;;;;;;;9.90;53.44;100821.14;1694358;83;21014;-53
2022/01/04 02:17:51;;;;;;;3.92;3.52;;;;;;;9.90;53.61;100822.00;1697923;83;21087;-52
2022/01/04 02:20:17;;;;;;;3.67;3.25;;;;;;;9.93;53.86;100822.40;1684260;83;21019;-53
2022/01/04 02:22:47;;;;;;;4.10;3.00;;;;;;;9.99;53.97;100818.38;1686620;83;21546;-52
2022/01/04 02:25:15;;;;;;;3.67;2.90;;;;;;;10.01;54.17;100816.61;1698416;83;21043;-52
2022/01/04 02:27:42;;;;;;;3.35;2.70;;;;;;;10.08;54.24;100803.46;1703845;83;21467;-53
2022/01/04 02:30:14;;;;;;;2.60;2.40;;;;;;;10.13;54.41;100800.81;1712663;83;21565;-52
2022/01/04 02:32:42;;;;;;;2.72;2.37;;;;;;;10.20;54.49;100805.02;1679783;83;21117;-53
2022/01/04 02:35:09;;;;;;;3.12;2.83;;;;;;;10.26;54.46;100802.30;1697320;83;21019;-52
2022/01/04 02:37:36;;;;;;;3.42;2.52;;;;;;;10.32;54.42;100804.34;1686391;83;21089;-52
2022/01/04 02:40:05;;;;;;;2.67;2.47;;;;;;;10.38;54.36;100802.05;1692964;82;20984;-52
2022/01/04 02:42:34;;;;;;;3.85;2.37;;;;;;;10.48;54.16;100823.09;1698347;83;21077;-52
2022/01/04 02:45:00;;;;;;;2.80;2.30;;;;;;;10.53;54.02;100812.16;1684599;84;21106;-52
2022/01/04 02:47:28;;;;;;;2.62;2.10;;;;;;;10.58;53.89;100820.70;1692080;84;20991;-52
2022/01/04 02:49:56;;;;;;;3.30;2.50;;;;;;;10.71;53.60;100818.70;1687724;83;20994;-53
2022/01/04 02:52:23;;;;;;;3.20;2.60;;;;;;;10.76;53.42;100820.78;1695058;83;21518;-52
2022/01/04 02:54:49;;;;;;;2.90;2.60;;;;;;;10.83;53.28;100832.76;1704172;83;22676;-52
2022/01/04 02:57:16;;;;;;;3.55;2.47;;;;;;;10.85;53.14;100822.73;1699763;83;21086;-52
2022/01/04 02:59:42;;;;;;;3.05;2.60;;;;;;;10.88;53.07;100833.06;1700217;83;21042;-52
2022/01/04 03:02:09;;;;;;;2.98;2.67;;;;;;;10.76;53.30;100825.52;1701740;83;21031;-52
2022/01/04 03:04:37;;;;;;;2.90;2.47;;;;;;;10.74;53.38;100824.70;1698753;83;21058;-52
2022/01/04 03:07:04;;;;;;;3.35;2.47;;;;;;;10.75;53.29;100823.83;1687978;83;21114;-52
2022/01/04 03:09:31;;;;;;;2.55;2.35;;;;;;;10.78;53.26;100826.34;1698249;83;21070;-52
2022/01/04 03:11:57;;;;;;;2.80;2.50;;;;;;;10.79;53.25;100828.08;1697389;83;21105;-52
2022/01/04 03:14:24;;;;;;;4.58;2.40;;;;;;;10.79;53.18;100830.67;1691756;83;21060;-52
2022/01/04 03:16:50;;;;;;;2.67;2.22;;;;;;;10.80;53.26;100834.98;1697231;83;21102;-53
2022/01/04 03:19:17;;;;;;;2.98;2.25;;;;;;;10.81;53.21;100839.31;1687829;83;21097;-52
2022/01/04 03:21:45;;;;;;;3.00;2.15;;;;;;;10.80;53.23;100840.18;1690245;83;21055;-53
2022/01/04 03:24:14;;;;;;;2.70;2.08;;;;;;;10.81;53.29;100842.34;1691115;83;21059;-52
2022/01/04 03:26:40;;;;;;;1.85;1.60;;;;;;;10.80;53.38;100840.18;1699582;83;20968;-52
2022/01/04 03:29:09;;;;;;;2.60;2.02;;;;;;;10.82;53.54;100850.11;1704108;83;21032;-52
2022/01/04 03:31:37;;;;;;;1.92;1.72;;;;;;;10.82;53.56;100851.41;1684027;83;21058;-52
2022/01/04 03:34:03;;;;;;;4.00;2.47;;;;;;;10.83;53.63;100858.35;1708744;83;21070;-52
2022/01/04 03:36:31;;;;;;;2.20;1.57;;;;;;;10.85;53.62;100853.97;1693824;83;21038;-52
2022/01/04 03:38:59;;;;;;;1.87;1.70;;;;;;;10.86;53.67;100850.93;1722490;83;21093;-52
2022/01/04 03:41:26;;;;;;;1.72;1.45;;;;;;;10.86;53.74;100850.46;1703455;83;20998;-52
2022/01/04 03:43:54;;;;;;;1.82;1.70;;;;;;;10.87;53.84;100848.72;1701816;83;21492;-52
2022/01/04 03:46:20;;;;;;;1.77;1.60;;;;;;;10.89;53.83;100858.22;1691928;83;21117;-52
2022/01/04 03:48:47;;;;;;;2.08;1.45;;;;;;;10.91;53.87;100864.25;1690381;83;21026;-52
2022/01/04 03:51:14;;;;;;;2.83;1.72;;;;;;;10.93;53.82;100862.47;1698595;83;21078;-53
2022/01/04 03:53:40;;;;;;;2.08;1.60;;;;;;;10.95;53.80;100875.01;1697533;83;21077;-52
2022/01/04 03:56:09;;;;;;;2.12;1.70;;;;;;;10.95;53.81;100880.22;1694594;83;21093;-53
2022/01/04 03:58:36;;;;;;;4.33;1.67;;;;;;;10.95;53.88;100892.37;1676869;83;21069;-53
2022/01/04 04:01:03;;;;;;;2.37;1.57;;;;;;;10.98;53.87;100897.09;1686926;83;21052;-53
2022/01/04 04:03:30;;;;;;;1.95;1.52;;;;;;;10.98;53.85;100903.60;1687888;83;21673;-52
2022/01/04 04:05:56;;;;;;;1.30;1.20;;;;;;;11.01;53.87;100902.22;1678233;82;21574;-52
2022/01/04 04:08:23;;;;;;;1.98;1.70;;;;;;;11.03;53.77;100915.20;1701786;82;21447;-53
2022/01/04 04:10:49;;;;;;;1.40;1.20;;;;;;;11.01;53.88;100922.18;1697086;82;21744;-52
2022/01/04 04:13:16;;;;;;;2.47;1.30;;;;;;;11.00;53.86;100913.54;1686542;83;21466;-52
2022/01/04 04:15:43;;;;;;;1.80;1.60;;;;;;;11.01;53.88;100913.94;1692133;83;21478;-52
2022/01/04 04:18:10;;;;;;;1.77;1.37;;;;;;;11.00;53.88;100923.95;1692385;83;21102;-52
2022/01/04 04:20:38;;;;;;;1.55;1.45;;;;;;;10.98;53.97;100930.94;1689786;83;21124;-52
2022/01/04 04:23:05;;;;;;;1.45;1.35;;;;;;;10.97;53.95;100938.32;1672877;82;21031;-52
2022/01/04 04:25:33;;;;;;;1.50;1.20;;;;;;;10.96;53.96;100945.73;1679616;84;21054;-53
2022/01/04 04:28:00;;;;;;;1.50;1.40;;;;;;;10.96;53.94;100947.03;1690834;83;21007;-52
2022/01/04 04:30:27;;;;;;;1.87;1.50;;;;;;;10.94;53.89;100944.05;1705028;82;21022;-53
2022/01/04 04:32:53;;;;;;;1.55;1.32;;;;;;;11.02;53.51;100946.91;1689567;83;21014;-53
2022/01/04 04:35:20;;;;;;;1.70;1.55;;;;;;;11.04;53.40;100962.06;1686969;83;21069;-52
2022/01/04 04:37:46;;;;;;;1.60;1.22;;;;;;;11.02;53.38;100971.65;1705269;83;21522;-52
2022/01/04 04:40:14;;;;;;;1.95;1.22;;;;;;;11.02;53.33;100974.69;1699251;83;21532;-53
2022/01/04 04:42:41;;;;;;;1.25;1.15;;;;;;;11.01;53.31;100982.94;1687721;83;21085;-52
2022/01/04 04:45:08;;;;;;;1.57;1.10;;;;;;;11.00;53.42;100981.23;1688460;83;21038;-52
2022/01/04 04:47:35;;;;;;;1.40;1.30;;;;;;;10.98;53.48;100971.73;1686461;83;21578;-53
2022/01/04 04:50:03;;;;;;;1.00;0.90;;;;;;;10.97;53.69;100983.88;1686386;83;21088;-53
2022/01/04 04:52:30;;;;;;;1.10;1.00;;;;;;;10.95;53.93;100984.36;1691881;84;21519;-52
2022/01/04 04:54:56;;;;;;;1.12;0.90;;;;;;;10.94;54.07;100986.53;1689576;84;21066;-53
2022/01/04 04:57:22;;;;;;;1.32;1.02;;;;;;;10.94;54.25;100991.74;1697291;83;21014;-53
2022/01/04 04:59:49;;;;;;;2.40;0.93;;;;;;;10.95;54.20;100986.09;1681819;83;21611;-52
2022/01/04 05:02:16;;;;;;;1.15;1.00;;;;;;;10.91;54.26;100984.01;1703448;83;21491;-52
2022/01/04 05:04:43;;;;;;;1.30;1.00;;;;;;;10.87;54.31;100982.35;1692067;83;21468;-53
2022/01/04 05:07:09;;;;;;;1.20;1.00;;;;;;;10.81;54.46;100990.28;1691265;83;21518;-53
2022/01/04 05:09:36;;;;;;;1.20;1.10;;;;;;;10.81;54.44;100994.62;1679338;84;21617;-53
2022/01/04 05:12:06;;;;;;;1.20;1.10;;;;;;;10.82;54.50;101001.09;1700249;83;21109;-52
2022/01/04 05:14:33;;;;;;;1.50;1.07;;;;;;;10.68;54.87;101003.09;1701326;83;21019;-53
2022/01/04 05:17:00;;;;;;;0.80;0.80;;;;;;;10.64;54.94;101015.31;1695919;83;21054;-53
2022/01/04 05:19:27;;;;;;;1.35;1.02;;;;;;;10.65;55.00;101020.08;1697680;83;21054;-53
2022/01/04 05:21:53;;;;;;;1.30;0.93;;;;;;;10.67;55.02;101018.31;1701713;83;21559;-52
2022/01/04 05:24:20;;;;;;;1.32;1.10;;;;;;;10.69;55.00;101024.78;1702100;83;21058;-52
2022/01/04 05:26:47;;;;;;;1.42;1.25;;;;;;;10.70;54.96;101023.45;1705374;82;21062;-52
2022/01/04 05:29:14;;;;;;;1.02;0.93;;;;;;;10.71;54.87;101023.01;1703792;83;21054;-53
2022/01/04 05:31:40;;;;;;;1.77;1.00;;;;;;;10.72;54.88;101016.47;1699664;82;21037;-52
2022/01/04 05:34:07;;;;;;;1.62;1.12;;;;;;;10.72;54.85;101021.67;1681521;83;21117;-52
2022/01/04 05:36:35;;;;;;;1.72;1.12;;;;;;;10.72;54.84;101019.06;1694344;84;21043;-52
2022/01/04 05:39:01;;;;;;;1.77;1.22;;;;;;;10.73;54.88;101026.00;1698081;83;21038;-52
2022/01/04 05:41:28;;;;;;;1.42;1.30;;;;;;;10.74;54.83;101032.91;1688301;83;21039;-52
2022/01/04 05:43:55;;;;;;;1.20;1.10;;;;;;;10.74;54.79;101032.08;1686741;84;21054;-52
2022/01/04 05:46:21;;;;;;;2.08;1.52;;;;;;;10.74;54.72;101025.10;1692855;83;21117;-53
2022/01/04 05:48:48;;;;;;;1.20;1.10;;;;;;;10.74;54.60;101030.31;1669715;83;21071;-52
2022/01/04 05:51:15;;;;;;;1.25;1.10;;;;;;;10.74;54.62;101039.42;1702309;83;21097;-52
2022/01/04 05:53:42;;;;;;;1.12;1.02;;;;;;;10.75;54.56;101041.16;1705593;83;21538;-53
2022/01/04 05:56:09;;;;;;;1.57;1.35;;;;;;;10.75;54.51;101041.16;1667827;83;21554;-52
2022/01/04 05:58:37;;;;;;;1.30;1.20;;;;;;;10.74;54.46;101043.33;1693356;83;21015;-52
2022/01/04 06:01:04;;;;;;;1.20;0.98;;;;;;;10.74;54.35;101035.52;1691741;83;21119;-52
2022/01/04 06:03:30;;;;;;;1.30;1.20;;;;;;;10.72;54.28;101038.59;1695531;83;21046;-52
2022/01/04 06:05:59;;;;;;;1.30;1.20;;;;;;;10.65;54.34;101038.30;1677087;83;21063;-52
2022/01/04 06:08:33;;;;;;;1.35;1.20;;;;;;;10.59;54.46;101041.02;1698349;83;21034;-52
2022/01/04 06:11:00;;;;;;;1.80;1.62;;;;;;;10.53;54.61;101042.42;1681708;83;21023;-52
2022/01/04 06:16:11;;;;;;;1.70;1.10;;;;;;;10.39;54.92;101048.27;1707235;83;21003;-52
2022/01/04 06:18:41;;;;;;;1.92;1.35;;;;;;;10.38;54.99;101046.13;1700494;83;20970;-52
2022/01/04 06:21:09;;;;;;;1.40;1.22;;;;;;;10.41;55.16;101055.60;1680564;83;21031;-52
2022/01/04 06:23:36;;;;;;;2.45;1.45;;;;;;;10.48;55.38;101058.53;1684769;83;21132;-53
2022/01/04 06:26:02;;;;;;;1.85;1.42;;;;;;;10.58;55.38;101065.30;1691181;83;21097;-52
2022/01/04 06:28:31;;;;;;;1.62;1.52;;;;;;;10.64;54.92;101073.00;1678550;83;21054;-52
2022/01/04 06:30:57;;;;;;;1.90;1.50;;;;;;;10.61;54.68;101075.20;1679907;84;21038;-52
2022/01/04 06:33:24;;;;;;;3.35;1.98;;;;;;;10.63;54.58;101086.91;1703166;83;21549;-52
2022/01/04 06:35:51;;;;;;;2.75;1.92;;;;;;;10.68;54.40;101091.58;1670862;83;21090;-52
2022/01/04 06:38:18;;;;;;;1.70;1.60;;;;;;;10.71;54.38;101086.34;1693758;83;21049;-52
2022/01/04 06:40:45;;;;;;;1.70;1.60;;;;;;;10.76;54.21;101105.32;1696084;83;21089;-52
2022/01/04 06:43:11;;;;;;;4.45;1.90;;;;;;;10.75;54.14;101110.56;1697774;83;20987;-52
2022/01/04 06:45:38;;;;;;;2.02;1.70;;;;;;;10.75;54.10;101117.94;1683315;82;21519;-52
2022/01/04 06:48:05;;;;;;;2.15;1.77;;;;;;;10.77;54.15;101113.56;1698003;83;21067;-53
2022/01/04 06:50:32;;;;;;;4.03;2.25;;;;;;;10.81;54.12;101116.53;1704815;83;21155;-53
2022/01/04 06:52:59;;;;;;;3.20;2.33;;;;;;;10.85;54.08;101120.80;1693608;83;21109;-54
2022/01/04 06:55:25;;;;;;;2.65;2.08;;;;;;;10.88;54.08;101120.73;1672362;85;20974;-54
2022/01/04 06:57:54;;;;;;;3.35;1.80;;;;;;;10.91;54.11;101119.39;1685404;83;21109;-53
2022/01/04 07:00:20;;;;;;;2.67;1.70;;;;;;;10.95;54.06;101118.45;1692344;83;20998;-53
2022/01/04 07:02:46;;;;;;;2.45;1.82;;;;;;;10.97;54.02;101124.48;1692041;82;21054;-53
2022/01/04 07:05:13;;;;;;;1.85;1.70;;;;;;;11.01;53.96;101123.55;1703720;83;21491;-53
2022/01/04 07:07:41;;;;;;;1.98;1.55;;;;;;;11.04;53.89;101120.91;1681722;83;21051;-54
2022/01/04 07:10:09;;;;;;;1.40;1.30;;;;;;;11.05;53.88;101121.30;1677867;83;21030;-53
2022/01/04 07:12:35;;;;;;;1.77;1.30;;;;;;;11.10;53.84;101130.34;1691344;83;21040;-53
2022/01/04 07:15:04;;;;;;;1.32;1.10;;;;;;;11.12;53.80;101133.34;1686004;83;21145;-53
2022/01/04 07:17:34;;;;;;;1.75;1.30;;;;;;;11.16;53.66;101132.40;1690502;82;21126;-53
2022/01/04 07:20:01;;;;;;;1.47;0.82;;;;;;;11.18;53.56;101129.32;1691173;83;21031;-53
2022/01/04 07:22:29;;;;;;;1.10;1.00;;;;;;;11.21;53.53;101127.11;1677887;83;21058;-53
2022/01/04 07:24:55;;;;;;;1.17;1.07;;;;;;;11.22;53.54;101127.08;1679515;83;21065;-54
2022/01/04 07:27:23;;;;;;;1.20;1.10;;;;;;;11.24;53.55;101127.91;1700021;83;21081;-53
2022/01/04 07:29:50;;;;;;;1.35;1.07;;;;;;;11.26;53.61;101139.16;1703070;83;21058;-54
2022/01/04 07:32:16;;;;;;;1.60;1.50;;;;;;;11.29;53.65;101140.38;1685218;83;21014;-53
2022/01/04 07:34:43;;;;;;;2.98;1.60;;;;;;;11.33;53.68;101141.21;1700941;83;21523;-54
2022/01/04 07:37:09;;;;;;;1.45;1.20;;;;;;;11.35;53.75;101137.66;1701826;83;21040;-53
2022/01/04 07:39:36;;;;;;;1.35;1.20;;;;;;;11.38;53.82;101128.50;1694684;83;20968;-52
2022/01/04 07:42:03;;;;;;;2.62;1.47;;;;;;;11.44;53.83;101133.59;1691731;83;21023;-53
2022/01/04 07:44:31;;;;;;;1.22;1.12;;;;;;;11.48;53.80;101134.85;1696889;83;21022;-52
2022/01/04 07:46:58;;;;;;;1.85;1.60;;;;;;;11.53;53.86;101136.91;1681293;83;20987;-53
2022/01/04 07:49:26;;;;;;;2.08;1.87;;;;;;;11.56;53.65;101134.25;1696046;83;20995;-52
2022/01/04 07:51:53;;;;;;;2.85;2.25;;;;;;;11.55;53.46;101144.25;1702569;83;21070;-53
2022/01/04 07:54:19;;;;;;;4.05;3.02;;;;;;;11.51;53.53;101138.69;1685834;84;21030;-53
2022/01/04 07:56:45;;;;;;;3.77;2.87;;;;;;;11.52;53.46;101137.81;1688722;83;21065;-53
2022/01/04 07:59:12;;;;;;;4.65;2.55;;;;;;;11.52;53.26;101141.72;1684122;83;21050;-53
2022/01/04 08:01:39;;;;;;;2.45;2.00;;;;;;;11.54;53.07;101147.77;1674605;84;21078;-52
2022/01/04 08:04:05;;;;;;;2.33;1.75;;;;;;;11.55;52.87;101153.37;1672872;84;21021;-53
2022/01/04 08:06:32;;;;;;;2.60;1.90;;;;;;;11.55;52.65;101158.14;1679382;83;21002;-52
2022/01/04 08:08:59;;;;;;;3.10;2.15;;;;;;;11.55;52.62;101165.09;1681003;83;21066;-52
2022/01/04 08:11:26;;;;;;;2.42;2.20;;;;;;;11.57;52.53;101171.14;1688962;83;21580;-53
2022/01/04 08:13:53;;;;;;;3.37;2.15;;;;;;;11.56;52.34;101170.27;1673980;84;21062;-52
2022/01/04 08:16:20;;;;;;;3.58;2.08;;;;;;;11.57;52.33;101178.95;1684566;83;20995;-52
2022/01/04 08:18:48;;;;;;;2.52;1.90;;;;;;;11.58;52.20;101180.69;1690275;83;21538;-52
2022/01/04 08:21:14;;;;;;;2.80;1.98;;;;;;;11.55;52.38;101179.00;1674898;83;22430;-52
2022/01/04 08:23:41;;;;;;;3.05;2.10;;;;;;;11.58;52.44;101183.30;1697334;83;21011;-52
2022/01/04 08:26:07;;;;;;;3.52;2.12;;;;;;;11.60;52.34;101176.31;1692572;83;21562;-52
2022/01/04 08:28:34;;;;;;;3.15;2.15;;;;;;;11.60;52.21;101181.52;1673722;83;21518;-53
2022/01/04 08:31:00;;;;;;;2.30;2.00;;;;;;;11.61;52.28;101181.92;1688576;83;21506;-52
2022/01/04 08:33:26;;;;;;;5.28;2.62;;;;;;;11.65;52.43;101178.36;1701448;83;21067;-52
2022/01/04 08:35:53;;;;;;;3.83;2.40;;;;;;;11.69;52.53;101180.92;1694448;83;21092;-52
2022/01/04 08:38:19;;;;;;;7.10;3.00;;;;;;;11.78;52.82;101189.02;1691172;83;21058;-53
2022/01/04 08:40:46;;;;;;;4.08;2.35;;;;;;;11.86;52.91;101185.80;1682528;83;21535;-53
2022/01/04 08:43:13;;;;;;;3.30;2.47;;;;;;;11.95;52.91;101185.63;1672501;83;21073;-52
2022/01/04 08:45:39;;;;;;;2.87;2.00;;;;;;;12.05;52.90;101184.55;1688121;83;20972;-53
2022/01/04 08:48:05;;;;;;;2.75;1.70;;;;;;;12.16;53.09;101184.72;1684898;83;21026;-52
2022/01/04 08:50:33;;;;;;;4.12;2.37;;;;;;;12.27;53.22;101181.89;1702900;83;21010;-53
2022/01/04 08:53:00;;;;;;;3.95;2.10;;;;;;;12.39;53.17;101172.91;1697052;83;21014;-52
2022/01/04 08:55:26;;;;;;;2.50;1.92;;;;;;;12.50;53.12;101162.66;1678241;83;21077;-53
2022/01/04 08:57:53;;;;;;;2.98;1.82;;;;;;;12.60;53.18;101157.64;1681875;83;21509;-52
2022/01/04 09:00:19;;;;;;;2.95;1.60;;;;;;;12.71;53.15;101148.25;1682385;83;21014;-52
2022/01/04 09:02:46;;;;;;;3.65;1.92;;;;;;;12.80;53.06;101144.95;1683922;84;21089;-52
2022/01/04 09:05:13;;;;;;;3.17;2.08;;;;;;;12.89;52.97;101152.58;1704488;83;21082;-52
2022/01/04 09:07:39;;;;;;;4.62;1.92;;;;;;;12.97;52.77;101151.93;1711266;83;21098;-52
2022/01/04 09:10:07;;;;;;;2.30;1.70;;;;;;;13.06;52.54;101160.86;1699040;83;21307;-52
2022/01/04 09:12:55;;;;;;;3.10;2.55;;;;;;;13.14;52.28;101157.20;1677362;82;21046;-52
2022/01/04 09:20:47;;;;;;;3.27;2.00;;;;;;;13.27;51.58;101162.53;1675817;82;21569;-52
2022/01/04 09:23:18;;;;;;;4.47;2.40;;;;;;;13.29;51.35;101149.80;1689959;83;21038;-52
2022/01/04 09:25:46;;;;;;;4.12;2.52;;;;;;;13.31;51.36;101152.41;1704670;83;21099;-52
2022/01/04 09:28:13;;;;;;;2.87;2.15;;;;;;;13.31;51.40;101151.09;1697203;83;21035;-53
2022/01/04 09:30:41;;;;;;;3.22;2.10;;;;;;;13.33;51.44;101155.84;1695570;83;21004;-52
2022/01/04 09:33:07;;;;;;;2.67;2.20;;;;;;;13.37;51.52;101162.70;1701744;83;21146;-52
2022/01/04 09:35:35;;;;;;;4.05;2.35;;;;;;;13.42;51.64;101159.48;1703989;83;21014;-52
2022/01/04 09:38:03;;;;;;;4.78;2.20;;;;;;;13.48;51.58;101163.24;1688538;83;21062;-52
2022/01/04 09:40:31;;;;;;;4.55;2.70;;;;;;;13.52;51.48;101162.26;1690509;83;21004;-52
2022/01/04 09:42:59;;;;;;;3.47;2.22;;;;;;;13.57;51.52;101160.39;1692037;83;21071;-52
2022/01/04 09:45:25;;;;;;;3.33;2.35;;;;;;;13.63;51.56;101165.45;1676774;83;21061;-52
2022/01/04 09:47:51;;;;;;;4.03;2.40;;;;;;;13.67;51.55;101169.69;1703086;82;20983;-52
2022/01/04 09:50:18;;;;;;;2.87;2.40;;;;;;;13.73;51.59;101165.59;1704609;83;21042;-53
2022/01/04 09:52:49;;;;;;;3.67;2.30;;;;;;;13.77;51.48;101165.48;1685891;83;21082;-52
2022/01/04 09:55:17;;;;;;;2.83;2.08;;;;;;;13.84;51.47;101163.55;1692048;83;21518;-52
2022/01/04 09:57:45;;;;;;;3.55;2.15;;;;;;;13.89;51.40;101168.18;1673658;84;21514;-52
2022/01/04 10:00:15;;;;;;;2.02;1.80;;;;;;;13.94;51.35;101163.69;1687000;82;21032;-52
2022/01/04 10:02:47;;;;;;;3.67;2.10;;;;;;;13.99;51.17;101160.50;1632681;86;21538;-52
2022/01/04 10:05:23;;;;;;;5.22;2.40;;;;;;;14.02;51.09;101159.09;1626211;86;21066;-52
2022/01/04 10:08:00;;;;;;;3.08;2.12;;;;;;;14.05;50.93;101164.25;1553008;91;21606;-54
2022/01/04 10:10:28;;;;;;;3.95;2.30;;;;;;;14.09;50.56;101167.17;1552667;91;21073;-52
2022/01/04 10:13:01;;;;;;;4.22;2.40;;;;;;;14.10;50.07;101167.56;1544056;91;21554;-52
2022/01/04 10:15:42;;;;;;;3.92;1.80;;;;;;;14.12;49.82;101168.38;1541163;91;21078;-53
2022/01/04 10:18:20;;;;;;;4.70;2.05;;;;;;;14.15;49.59;101176.16;1523340;92;21130;-52
2022/01/04 10:20:53;;;;;;;3.70;2.10;;;;;;;14.19;49.07;101169.92;1539753;91;21094;-52
2022/01/04 10:23:23;;;;;;;3.22;2.02;;;;;;;14.24;48.40;101168.00;1536319;92;21172;-53
2022/01/04 10:25:50;;;;;;;4.22;2.22;;;;;;;14.27;48.12;101164.00;1537824;92;21222;-52
2022/01/04 10:28:37;;;;;;;3.75;1.70;;;;;;;14.30;47.86;101167.85;1544377;92;21141;-52
2022/01/04 10:31:12;;;;;;;6.78;1.70;;;;;;;14.33;47.89;101165.16;1539488;92;21168;-52
2022/01/04 10:33:38;;;;;;;3.95;2.15;;;;;;;14.36;47.80;101166.83;1410388;100;21631;-52
2022/01/04 10:36:13;;;;;;;4.47;2.10;;;;;;;14.39;47.83;101171.52;1384422;101;22441;-52
2022/01/04 10:38:43;;;;;;;5.60;1.92;;;;;;;14.45;47.67;101156.92;1418491;98;21175;-52
2022/01/04 10:41:21;;;;;;;8.03;5.10;;;;;;;14.50;47.54;101158.95;1417583;100;21223;-51
2022/01/04 10:43:58;;;;;;;8.73;5.33;;;;;;;14.57;47.38;101160.45;1412685;100;21176;-52
2022/01/04 10:46:43;;;;;;;7.35;4.03;;;;;;;14.93;46.80;101156.25;1390578;100;21217;-52
2022/01/04 10:49:19;;;;;;;4.47;2.83;;;;;;;15.17;46.25;101158.03;1421761;99;21133;-52
2022/01/04 10:52:07;;;;;;;4.85;2.20;;;;;;;14.76;46.91;101163.34;1417106;100;21619;-52
2022/01/04 10:54:36;;;;;;;3.95;2.42;;;;;;;14.73;46.99;101162.16;1416084;100;22637;-51
2022/01/04 10:57:10;;;;;;;3.62;1.72;;;;;;;14.74;47.06;101160.36;1418075;100;21688;-51
2022/01/04 10:59:37;;;;;;;4.47;2.17;;;;;;;14.76;47.08;101169.03;1417348;100;21664;-52
2022/01/04 11:02:04;;;;;;;3.65;2.10;;;;;;;14.79;47.27;101171.12;1419613;100;21142;-52
2022/01/04 11:04:31;;;;;;;4.40;2.67;;;;;;;14.79;47.99;101167.64;1416548;100;21633;-51
2022/01/04 11:07:00;;;;;;;3.92;2.65;;;;;;;14.80;48.41;101169.33;1444168;98;21103;-52
2022/01/04 11:09:26;;;;;;;4.12;2.10;;;;;;;14.81;48.55;101168.44;1444473;98;21119;-51
2022/01/04 11:11:54;;;;;;;2.98;2.35;;;;;;;14.82;48.48;101171.48;1445751;98;21676;-51
2022/01/04 11:14:21;;;;;;;3.25;2.47;;;;;;;14.84;48.44;101172.29;1425123;99;21681;-51
2022/01/04 11:16:49;;;;;;;4.62;2.77;;;;;;;14.87;48.50;101176.10;1441093;98;21140;-51
2022/01/04 11:19:16;;;;;;;5.58;2.65;;;;;;;14.89;48.69;101178.22;1424293;100;21109;-52
2022/01/04 11:21:43;;;;;;;3.27;2.70;;;;;;;14.93;48.70;101179.83;1438870;99;21189;-52
2022/01/04 11:24:12;;;;;;;5.12;2.95;;;;;;;14.97;48.68;101174.45;1450712;98;21608;-52
2022/01/04 11:26:43;;;;;;;3.87;2.73;;;;;;;14.99;48.65;101175.70;1464672;97;21599;-52
2022/01/04 11:29:09;;;;;;;5.22;2.65;;;;;;;15.01;48.60;101169.95;1474469;93;21256;-52
2022/01/04 11:31:55;;;;;;;5.12;2.72;;;;;;;15.01;48.57;101175.19;1555809;91;21560;-51
2022/01/04 11:35:20;;;;;;;3.40;2.60;;;;;;;14.99;48.63;101178.31;1558470;91;21194;-52
2022/01/04 11:37:58;;;;;;;4.00;2.42;;;;;;;14.99;48.73;101175.70;1620320;86;21058;-52